Terminal Aerodrome Forecast
Issued by NWS

Home | Current Version | Previous Version | Text Only | Print | Product List | Glossary On
Versions: 1 2 3 4 5 6 7 8 9 10 11 12 13
000
FTUS44 KOUN 281128
TAFHBR
TAF
KHBR 281128Z 2812/2912 VRB05KT P6SM FEW120 SCT250
     FM281800 14008KT P6SM FEW050 SCT250
     FM290700 15011KT P6SM VCTS SCT050CB BKN100
      TEMPO 2908/2912 35025G35KT 3SM -TSRA OVC040CB=

USA.gov is the U.S. government's official web portal to all federal, state and local government web resources and services.